Gulf Shores, Alabama
Current Conditions -  °F | °C
As of 7:15 PM on Thursday 27 Nov 2014 (Local Time) from KJKA Reporting Station
Clear Clear  
Wind Chill: 41°   Ceiling: Unl
Heat Index: 41°   Visibility: 10mi
Dew Point: 33°   Wind: 0mph
Humidity: 74%   Direction: NA
Pressure: 30.42"   Gusts: NA
Location:  30.27°N, 87.7°W
Report Text: KJKA 280115Z AUTO 00000KT 10SM CLR 05/01 A3042 RMK AO2 T00500007
Loading
Personal Weather Stations






























Interactive Weather Map New forecast layout! Learn more

10-Day Weather Forecast

Advertisements
Track Severe Weather on mobile